createdAt,value
2019-02-14T00:01:10.722Z,22.33
2019-02-14T00:03:39.299Z,23.17
2019-02-14T00:06:07.885Z,21.37
2019-02-14T00:08:36.430Z,21.17
2019-02-14T00:11:05.079Z,21.17
2019-02-14T00:13:33.643Z,21.33
2019-02-14T00:16:02.220Z,21.40
2019-02-14T00:18:30.933Z,22.77
2019-02-14T00:20:59.511Z,22.57
2019-02-14T00:23:28.177Z,22.80
2019-02-14T00:25:56.824Z,23.20
2019-02-14T00:28:25.466Z,21.03
2019-02-14T00:30:54.143Z,22.23
2019-02-14T00:33:22.843Z,21.43
2019-02-14T00:35:51.481Z,22.60
2019-02-14T00:38:20.041Z,20.40
2019-02-14T00:40:48.708Z,20.83
2019-02-14T00:43:17.355Z,21.27
2019-02-14T00:45:45.939Z,23.60
2019-02-14T00:48:14.577Z,22.83
2019-02-14T00:50:43.141Z,22.57
2019-02-14T00:53:11.701Z,22.33
2019-02-14T00:55:40.373Z,22.20
2019-02-14T00:58:08.987Z,22.80
2019-02-14T01:00:37.561Z,22.77
2019-02-14T01:03:06.213Z,21.13
2019-02-14T01:05:34.886Z,22.80
2019-02-14T01:08:03.437Z,21.10
2019-02-14T01:10:32.032Z,20.23
2019-02-14T01:13:00.583Z,20.83
2019-02-14T01:15:29.343Z,21.60
2019-02-14T01:17:57.935Z,20.67
2019-02-14T01:20:26.648Z,21.17
2019-02-14T01:22:55.362Z,20.53
2019-02-14T01:25:23.925Z,20.70
2019-02-14T01:27:52.511Z,21.30
2019-02-14T01:30:21.211Z,20.60
2019-02-14T01:32:49.869Z,20.43
2019-02-14T01:35:18.524Z,19.80
2019-02-14T01:37:48.259Z,21.03
2019-02-14T01:40:17.079Z,20.00
2019-02-14T01:42:45.625Z,21.23
2019-02-14T01:45:14.253Z,20.50
2019-02-14T01:47:42.831Z,20.63
2019-02-14T01:50:11.938Z,19.33
2019-02-14T01:52:40.590Z,20.63
2019-02-14T01:55:09.369Z,19.87
2019-02-14T01:57:37.996Z,19.30
2019-02-14T02:00:13.441Z,19.13
2019-02-14T02:02:41.991Z,20.07
2019-02-14T02:05:10.606Z,18.87
2019-02-14T02:07:39.321Z,20.47
2019-02-14T02:10:10.605Z,17.67
2019-02-14T02:12:39.305Z,19.37
2019-02-14T02:15:11.421Z,20.00
2019-02-14T02:17:40.019Z,20.20
2019-02-14T02:20:10.314Z,18.57
2019-02-14T02:22:39.025Z,18.70
2019-02-14T02:25:10.395Z,19.90
2019-02-14T02:27:39.125Z,19.60
2019-02-14T02:30:13.135Z,19.90
2019-02-14T02:32:41.679Z,19.97
2019-02-14T02:35:10.311Z,18.43
2019-02-14T02:37:38.889Z,19.57
2019-02-14T02:40:08.993Z,18.83
2019-02-14T02:42:37.562Z,19.40
2019-02-14T02:45:09.471Z,19.10
2019-02-14T02:47:38.055Z,17.70
2019-02-14T02:50:09.429Z,18.33
2019-02-14T02:52:38.031Z,17.80
2019-02-14T02:55:08.359Z,16.40
2019-02-14T02:57:37.142Z,17.63
2019-02-14T03:00:11.601Z,18.13
2019-02-14T03:02:40.234Z,17.30
2019-02-14T03:05:11.247Z,17.43
2019-02-14T03:07:39.834Z,17.70
2019-02-14T03:10:14.526Z,17.23
2019-02-14T03:12:43.161Z,16.10
2019-02-14T03:15:14.188Z,16.13
2019-02-14T03:17:42.869Z,16.50
2019-02-14T03:20:12.693Z,17.00
2019-02-14T03:22:41.360Z,17.63
2019-02-14T03:25:15.610Z,17.27
2019-02-14T03:27:44.175Z,16.73
2019-02-14T03:30:16.704Z,16.27
2019-02-14T03:32:45.339Z,16.03
2019-02-14T03:35:13.999Z,16.63
2019-02-14T03:37:42.623Z,16.30
2019-02-14T03:40:12.921Z,16.07
2019-02-14T03:42:41.457Z,15.17
2019-02-14T03:45:13.237Z,15.27
2019-02-14T03:47:41.731Z,15.03
2019-02-14T03:50:11.685Z,15.10
2019-02-14T03:52:40.512Z,16.60
2019-02-14T03:55:10.336Z,15.67
2019-02-14T03:57:39.414Z,16.47
2019-02-14T04:00:13.703Z,16.23
2019-02-14T04:02:42.349Z,16.63
2019-02-14T04:05:11.206Z,17.90
2019-02-14T04:07:40.206Z,17.57
2019-02-14T04:10:13.689Z,19.07
2019-02-14T04:12:42.302Z,15.97
2019-02-14T04:15:13.128Z,15.97
2019-02-14T04:17:41.778Z,16.93
2019-02-14T04:20:11.161Z,16.70
2019-02-14T04:22:39.841Z,17.37
2019-02-14T04:25:09.992Z,16.53
2019-02-14T04:27:38.724Z,17.73
2019-02-14T04:30:12.715Z,16.73
2019-02-14T04:32:41.334Z,16.43
2019-02-14T04:35:10.322Z,17.27
2019-02-14T04:37:38.918Z,16.67
2019-02-14T04:40:10.325Z,17.03
2019-02-14T04:42:38.970Z,18.03
2019-02-14T04:45:09.315Z,16.57
2019-02-14T04:47:37.893Z,17.23
2019-02-14T04:50:08.776Z,16.77
2019-02-14T04:52:37.360Z,17.57
2019-02-14T04:55:09.120Z,17.60
2019-02-14T04:57:37.756Z,17.30
2019-02-14T05:00:14.850Z,17.80
2019-02-14T05:02:43.485Z,16.23
2019-02-14T05:05:12.184Z,17.03
2019-02-14T05:07:40.863Z,17.10
2019-02-14T05:10:11.140Z,16.70
2019-02-14T05:12:39.618Z,16.77
2019-02-14T05:15:10.769Z,17.70
2019-02-14T05:17:39.288Z,17.33
2019-02-14T05:20:11.912Z,17.70
2019-02-14T05:22:40.616Z,17.10
2019-02-14T05:25:10.031Z,17.77
2019-02-14T05:27:38.676Z,15.87
2019-02-14T05:30:15.984Z,16.67
2019-02-14T05:32:44.641Z,16.77
2019-02-14T05:35:13.331Z,16.60
2019-02-14T05:37:41.933Z,17.30
2019-02-14T05:40:11.595Z,16.37
2019-02-14T05:42:40.240Z,18.80
2019-02-14T05:45:11.208Z,17.63
2019-02-14T05:47:39.873Z,17.67
2019-02-14T05:50:15.293Z,18.07
2019-02-14T05:52:43.920Z,17.57
2019-02-14T05:55:15.321Z,19.03
2019-02-14T05:57:43.945Z,17.47
2019-02-14T06:00:17.959Z,17.50
2019-02-14T06:02:46.744Z,18.77
2019-02-14T06:05:15.391Z,17.73
2019-02-14T06:07:44.165Z,18.47
2019-02-14T06:10:12.930Z,18.00
2019-02-14T06:12:41.576Z,17.80
2019-02-14T06:15:11.700Z,18.13
2019-02-14T06:17:40.353Z,19.23
2019-02-14T06:20:10.617Z,19.03
2019-02-14T06:22:39.252Z,20.07
2019-02-14T06:25:10.270Z,20.10
2019-02-14T06:27:38.889Z,18.23
2019-02-14T06:30:13.354Z,18.50
2019-02-14T06:32:41.966Z,17.63
2019-02-14T06:35:11.564Z,17.77
2019-02-14T06:37:40.280Z,17.50
2019-02-14T06:40:13.542Z,19.03
2019-02-14T06:42:42.307Z,17.40
2019-02-14T06:45:16.428Z,18.87
2019-02-14T06:47:45.126Z,18.23
2019-02-14T06:50:13.820Z,19.00
2019-02-14T06:52:42.436Z,19.73
2019-02-14T06:55:11.122Z,18.67
2019-02-14T06:57:39.764Z,26.68
2019-02-14T07:00:14.281Z,21.77
2019-02-14T07:02:42.838Z,24.10
2019-02-14T07:05:11.546Z,20.40
2019-02-14T07:07:40.877Z,20.53
2019-02-14T07:10:11.278Z,19.23
2019-02-14T07:12:39.920Z,19.63
2019-02-14T07:15:11.364Z,20.03
2019-02-14T07:17:39.998Z,21.27
2019-02-14T07:20:11.723Z,22.97
2019-02-14T07:22:40.390Z,22.50
2019-02-14T07:25:11.107Z,21.93
2019-02-14T07:27:39.730Z,20.73
2019-02-14T07:30:20.648Z,20.93
2019-02-14T07:32:49.274Z,20.93
2019-02-14T07:35:17.974Z,20.20
2019-02-14T07:37:46.610Z,22.97
2019-02-14T07:40:15.604Z,22.50
2019-02-14T07:42:44.327Z,21.47
2019-02-14T07:45:15.150Z,21.67
2019-02-14T07:47:43.768Z,21.60
2019-02-14T07:50:13.365Z,20.43
2019-02-14T07:52:42.032Z,19.77
2019-02-14T07:55:12.508Z,19.10
2019-02-14T07:57:41.172Z,21.17
2019-02-14T08:00:21.776Z,22.07
2019-02-14T08:02:50.414Z,19.67
2019-02-14T08:05:19.063Z,19.77
2019-02-14T08:07:47.807Z,19.63
2019-02-14T08:10:17.656Z,18.40
2019-02-14T08:12:46.364Z,18.87
2019-02-14T08:15:15.486Z,18.47
2019-02-14T08:17:44.131Z,19.43
2019-02-14T08:20:15.278Z,19.60
2019-02-14T08:22:43.926Z,21.63
2019-02-14T08:25:13.641Z,24.07
2019-02-14T08:27:42.268Z,22.23
2019-02-14T08:30:18.711Z,21.03
2019-02-14T08:32:54.182Z,19.07
2019-02-14T08:35:22.554Z,20.60
2019-02-14T08:37:51.111Z,20.13
2019-02-14T08:40:29.184Z,19.87
2019-02-14T08:42:58.690Z,21.87
2019-02-14T08:45:27.442Z,19.17
2019-02-14T08:47:56.162Z,20.53
2019-02-14T08:50:24.715Z,19.43
2019-02-14T08:52:53.296Z,18.33
2019-02-14T08:55:21.880Z,19.50
2019-02-14T08:57:50.440Z,19.10
2019-02-14T09:00:18.998Z,17.80
2019-02-14T09:02:48.790Z,18.13
2019-02-14T09:05:17.403Z,16.93
2019-02-14T09:07:54.265Z,18.13
2019-02-14T09:10:17.236Z,18.10
2019-02-14T09:12:45.850Z,18.93
2019-02-14T09:15:15.240Z,17.13
2019-02-14T09:17:43.900Z,17.83
2019-02-14T09:20:17.892Z,17.37
2019-02-14T09:22:46.446Z,17.90
2019-02-14T09:25:15.127Z,17.60
2019-02-14T09:27:43.670Z,17.93
2019-02-14T09:30:16.507Z,18.43
2019-02-14T09:32:45.263Z,17.63
2019-02-14T09:35:13.889Z,16.20
2019-02-14T09:37:42.476Z,16.80
2019-02-14T09:40:13.505Z,16.30
2019-02-14T09:42:42.274Z,16.13
2019-02-14T09:45:13.130Z,15.70
2019-02-14T09:47:41.710Z,15.13
2019-02-14T09:50:12.404Z,14.17
2019-02-14T09:52:41.494Z,14.33
2019-02-14T09:55:14.299Z,15.00
2019-02-14T09:57:43.109Z,14.80
2019-02-14T10:00:14.322Z,14.73
2019-02-14T10:02:43.024Z,15.10
2019-02-14T10:05:11.726Z,15.93
2019-02-14T10:07:40.348Z,15.07
2019-02-14T10:10:14.974Z,15.03
2019-02-14T10:12:43.672Z,17.13
2019-02-14T10:15:12.423Z,16.27
2019-02-14T10:17:41.068Z,15.47
2019-02-14T10:20:12.673Z,16.47
2019-02-14T10:22:41.282Z,15.60
2019-02-14T10:25:10.210Z,16.50
2019-02-14T10:27:38.766Z,16.70
2019-02-14T10:30:21.322Z,18.17
2019-02-14T10:32:50.531Z,17.43
2019-02-14T10:35:21.244Z,16.13
2019-02-14T10:37:49.930Z,16.80
2019-02-14T10:40:18.515Z,15.57
2019-02-14T10:42:47.097Z,16.00
2019-02-14T10:45:20.846Z,15.57
2019-02-14T10:47:49.055Z,16.33
2019-02-14T10:50:17.765Z,14.03
2019-02-14T10:52:46.686Z,15.63
2019-02-14T10:55:16.381Z,15.17
2019-02-14T10:57:45.014Z,14.33
2019-02-14T11:00:24.514Z,13.80
2019-02-14T11:02:53.316Z,16.07
2019-02-14T11:05:22.073Z,13.97
2019-02-14T11:07:50.730Z,13.93
2019-02-14T11:10:19.426Z,13.67
2019-02-14T11:12:48.141Z,13.47
2019-02-14T11:15:25.206Z,14.00
2019-02-14T11:17:53.866Z,13.73
2019-02-14T11:20:22.566Z,13.93
2019-02-14T11:22:51.161Z,12.93
2019-02-14T11:25:22.764Z,14.40
2019-02-14T11:27:51.383Z,13.87
2019-02-14T11:30:20.091Z,13.40
2019-02-14T11:32:48.642Z,13.07
2019-02-14T11:35:17.202Z,13.63
2019-02-14T11:37:45.782Z,13.63
2019-02-14T11:40:14.987Z,13.47
2019-02-14T11:42:45.318Z,13.37
2019-02-14T11:45:22.191Z,13.30
2019-02-14T11:47:50.819Z,12.40
2019-02-14T11:50:19.513Z,13.97
2019-02-14T11:52:48.309Z,13.27
2019-02-14T11:55:16.935Z,12.17
2019-02-14T11:57:45.650Z,13.00
2019-02-14T12:00:27.023Z,13.83
2019-02-14T12:02:56.414Z,12.93
2019-02-14T12:05:25.215Z,14.13
2019-02-14T12:07:53.943Z,13.63
2019-02-14T12:10:22.674Z,12.67
2019-02-14T12:12:51.310Z,13.33
2019-02-14T12:15:19.974Z,13.50
2019-02-14T12:17:48.664Z,12.17
2019-02-14T12:20:22.175Z,13.50
2019-02-14T12:22:50.877Z,13.50
2019-02-14T12:25:28.131Z,13.67
2019-02-14T12:27:56.703Z,13.17
2019-02-14T12:30:25.331Z,12.43
2019-02-14T12:32:53.958Z,14.37
2019-02-14T12:35:22.634Z,14.13
2019-02-14T12:37:51.297Z,13.87
2019-02-14T12:40:20.065Z,12.87
2019-02-14T12:42:48.683Z,13.33
2019-02-14T12:45:26.081Z,12.20
2019-02-14T12:47:54.904Z,14.90
2019-02-14T12:50:23.651Z,14.55
2019-02-14T12:52:52.256Z,13.33
2019-02-14T12:55:20.880Z,13.90
2019-02-14T12:57:49.513Z,12.43
2019-02-14T13:00:23.851Z,12.10
2019-02-14T13:02:52.438Z,11.20
2019-02-14T13:05:21.133Z,10.93
2019-02-14T13:07:49.716Z,10.90
2019-02-14T13:10:19.073Z,11.43
2019-02-14T13:12:47.707Z,11.20
2019-02-14T13:15:25.359Z,11.10
2019-02-14T13:17:54.071Z,11.40
2019-02-14T13:20:22.677Z,11.47
2019-02-14T13:22:51.286Z,11.80
2019-02-14T13:25:20.010Z,11.70
2019-02-14T13:27:48.704Z,11.90
2019-02-14T13:30:19.947Z,11.97
2019-02-14T13:32:48.496Z,11.60
2019-02-14T13:35:17.141Z,11.97
2019-02-14T13:37:45.748Z,12.10
2019-02-14T13:40:14.500Z,12.93
2019-02-14T13:42:43.218Z,11.57
2019-02-14T13:45:14.520Z,11.50
2019-02-14T13:47:43.076Z,11.50
2019-02-14T13:50:12.866Z,11.47
2019-02-14T13:52:41.551Z,11.47
2019-02-14T13:55:10.855Z,12.43
2019-02-14T13:57:39.430Z,11.70
2019-02-14T14:00:14.251Z,11.23
2019-02-14T14:02:42.832Z,11.80
2019-02-14T14:05:11.390Z,11.57
2019-02-14T14:07:40.759Z,11.07
2019-02-14T14:10:10.310Z,12.60
2019-02-14T14:12:38.913Z,12.57
2019-02-14T14:15:09.630Z,13.23
2019-02-14T14:17:38.267Z,11.20
2019-02-14T14:20:08.063Z,11.00
2019-02-14T14:22:36.608Z,11.93
2019-02-14T14:25:07.660Z,11.97
2019-02-14T14:27:36.290Z,12.47
2019-02-14T14:30:12.570Z,12.03
2019-02-14T14:32:41.341Z,12.67
2019-02-14T14:35:11.337Z,12.50
2019-02-14T14:37:40.399Z,13.00
2019-02-14T14:40:20.408Z,13.30
2019-02-14T14:42:51.050Z,13.33
2019-02-14T14:45:36.518Z,12.77
2019-02-14T14:48:05.184Z,13.27
2019-02-14T14:50:33.736Z,12.17
2019-02-14T14:53:02.375Z,12.90
2019-02-14T14:55:30.962Z,12.40
2019-02-14T14:57:59.526Z,12.70
2019-02-14T15:00:28.094Z,13.17
2019-02-14T15:02:56.695Z,12.80
2019-02-14T15:05:25.262Z,12.97
2019-02-14T15:07:53.906Z,13.80
2019-02-14T15:10:22.577Z,14.50
2019-02-14T15:12:51.140Z,13.17
2019-02-14T15:15:19.762Z,12.37
2019-02-14T15:17:48.422Z,12.77
2019-02-14T15:20:16.978Z,12.90
2019-02-14T15:22:45.544Z,12.63
2019-02-14T15:25:14.127Z,12.90
2019-02-14T15:27:42.682Z,12.50
2019-02-14T15:30:11.314Z,12.60
2019-02-14T15:32:39.914Z,12.40
2019-02-14T15:35:09.376Z,12.00
2019-02-14T15:37:37.967Z,12.40
2019-02-14T15:40:09.995Z,12.80
2019-02-14T15:42:38.742Z,12.93
2019-02-14T15:45:08.538Z,12.83
2019-02-14T15:47:38.978Z,12.03
2019-02-14T15:50:09.140Z,12.33
2019-02-14T15:52:37.822Z,12.73
2019-02-14T15:55:07.940Z,12.80
2019-02-14T15:57:36.563Z,13.50
2019-02-14T16:00:10.726Z,13.40
2019-02-14T16:02:38.830Z,12.57
2019-02-14T16:05:08.269Z,13.93
2019-02-14T16:07:37.357Z,13.13
2019-02-14T16:10:17.588Z,13.43
2019-02-14T16:12:41.084Z,13.37
2019-02-14T16:15:10.307Z,12.77
2019-02-14T16:17:39.015Z,14.93
2019-02-14T16:20:08.616Z,13.57
2019-02-14T16:22:37.182Z,13.53
2019-02-14T16:25:07.725Z,12.70
2019-02-14T16:27:36.494Z,12.80
2019-02-14T16:30:09.398Z,13.50
2019-02-14T16:32:38.301Z,13.33
2019-02-14T16:35:07.910Z,13.20
2019-02-14T16:37:36.467Z,13.83
2019-02-14T16:40:08.011Z,14.33
2019-02-14T16:42:36.666Z,16.03
2019-02-14T16:45:07.675Z,18.47
2019-02-14T16:47:36.417Z,14.90
2019-02-14T16:50:07.884Z,16.90
2019-02-14T16:52:36.577Z,17.30
2019-02-14T16:55:07.200Z,17.03
2019-02-14T16:57:35.758Z,18.63
2019-02-14T17:00:06.028Z,14.03
2019-02-14T17:02:34.614Z,14.47
2019-02-14T17:05:03.332Z,14.23
2019-02-14T17:07:31.894Z,14.50
2019-02-14T17:10:00.508Z,13.90
2019-02-14T17:12:29.074Z,14.20
2019-02-14T17:14:57.721Z,14.20
2019-02-14T17:17:28.036Z,12.63
2019-02-14T17:19:56.878Z,12.07
2019-02-14T17:22:25.454Z,12.87
2019-02-14T17:24:54.129Z,15.03
2019-02-14T17:27:22.727Z,13.10
2019-02-14T17:29:51.360Z,11.43
2019-02-14T17:32:19.942Z,11.83
2019-02-14T17:34:48.640Z,12.28
2019-02-14T17:37:17.242Z,12.73
2019-02-14T17:39:45.835Z,12.13
2019-02-14T17:42:14.403Z,12.43
2019-02-14T17:44:42.985Z,12.50
2019-02-14T17:47:11.601Z,12.27
2019-02-14T17:49:40.200Z,11.77
2019-02-14T17:52:08.975Z,11.57
2019-02-14T17:54:38.188Z,12.13
2019-02-14T17:57:06.989Z,12.27
2019-02-14T17:59:35.713Z,12.97
2019-02-14T18:02:06.602Z,13.30
2019-02-14T18:04:35.261Z,13.13
2019-02-14T18:07:03.998Z,14.87
2019-02-14T18:09:33.549Z,14.10
2019-02-14T18:12:02.316Z,13.50
2019-02-14T18:14:30.897Z,13.60
2019-02-14T18:16:59.597Z,18.63
2019-02-14T18:19:28.177Z,14.97
2019-02-14T18:21:56.794Z,14.70
2019-02-14T18:24:25.396Z,14.13
2019-02-14T18:26:54.039Z,14.60
2019-02-14T18:29:22.693Z,15.03
2019-02-14T18:31:51.256Z,14.83
2019-02-14T18:34:19.858Z,14.80
2019-02-14T18:36:48.476Z,15.37
2019-02-14T18:39:17.221Z,15.60
2019-02-14T18:41:45.807Z,15.67
2019-02-14T18:44:14.567Z,17.13
2019-02-14T18:46:43.258Z,18.40
2019-02-14T18:49:11.965Z,30.17
2019-02-14T18:51:40.656Z,27.83
2019-02-14T18:54:09.347Z,27.00
2019-02-14T18:56:37.898Z,32.07
2019-02-14T18:59:06.637Z,27.73
2019-02-14T19:01:35.305Z,28.00
2019-02-14T19:04:04.022Z,27.27
2019-02-14T19:06:32.661Z,27.37
2019-02-14T19:09:01.350Z,26.83
2019-02-14T19:11:29.922Z,23.77
2019-02-14T19:13:58.549Z,22.30
2019-02-14T19:16:27.158Z,22.90
2019-02-14T19:18:55.825Z,22.85
2019-02-14T19:21:24.460Z,22.10
2019-02-14T19:23:53.141Z,23.17
2019-02-14T19:26:21.759Z,21.47
2019-02-14T19:28:50.393Z,22.30
2019-02-14T19:31:19.181Z,21.63
2019-02-14T19:33:47.793Z,21.43
2019-02-14T19:36:16.427Z,20.23
2019-02-14T19:38:45.194Z,19.57
2019-02-14T19:41:13.744Z,19.77
2019-02-14T19:43:42.767Z,19.63
2019-02-14T19:46:11.453Z,20.03
2019-02-14T19:48:40.080Z,19.73
2019-02-14T19:51:08.853Z,22.47
2019-02-14T19:53:39.099Z,22.20
2019-02-14T19:56:07.793Z,22.27
2019-02-14T19:58:36.535Z,22.57
2019-02-14T20:01:05.513Z,24.23
2019-02-14T20:03:34.078Z,24.23
2019-02-14T20:06:05.210Z,22.63
2019-02-14T20:08:48.508Z,22.40
2019-02-14T20:11:18.719Z,22.90
2019-02-14T20:13:49.641Z,21.40
2019-02-14T20:16:17.629Z,21.70
2019-02-14T20:18:46.199Z,21.30
2019-02-14T20:21:14.793Z,21.07
2019-02-14T20:23:43.434Z,21.60
2019-02-14T20:26:12.103Z,21.90
2019-02-14T20:28:42.355Z,20.87
2019-02-14T20:31:11.073Z,23.67
2019-02-14T20:33:39.765Z,23.97
2019-02-14T20:36:08.653Z,22.00
2019-02-14T20:38:37.399Z,22.33
2019-02-14T20:41:05.987Z,22.43
2019-02-14T20:43:34.566Z,22.23
2019-02-14T20:46:03.270Z,21.20
2019-02-14T20:48:31.817Z,20.23
2019-02-14T20:51:00.453Z,20.83
2019-02-14T20:53:30.101Z,20.80
2019-02-14T20:55:59.107Z,20.57
2019-02-14T20:58:27.821Z,19.83
2019-02-14T21:00:56.539Z,19.90
2019-02-14T21:03:25.163Z,19.10
2019-02-14T21:05:53.859Z,18.97
2019-02-14T21:08:22.582Z,18.33
2019-02-14T21:10:51.155Z,19.17
2019-02-14T21:13:19.775Z,19.87
2019-02-14T21:15:48.555Z,18.93
2019-02-14T21:18:19.941Z,18.10
2019-02-14T21:20:48.582Z,18.17
2019-02-14T21:23:17.244Z,17.73
2019-02-14T21:25:45.832Z,17.60
2019-02-14T21:28:14.549Z,19.53
2019-02-14T21:30:43.200Z,19.23
2019-02-14T21:33:11.803Z,18.63
2019-02-14T21:35:40.502Z,18.47
2019-02-14T21:38:09.383Z,18.70
2019-02-14T21:40:39.892Z,19.13
2019-02-14T21:43:08.516Z,18.10
2019-02-14T21:45:37.241Z,17.30
2019-02-14T21:48:05.965Z,18.67
2019-02-14T21:50:34.616Z,17.73
2019-02-14T21:53:03.198Z,17.57
2019-02-14T21:55:34.819Z,17.30
2019-02-14T21:58:04.910Z,17.40
2019-02-14T22:00:34.426Z,17.80
2019-02-14T22:03:03.058Z,17.70
2019-02-14T22:05:31.801Z,18.53
2019-02-14T22:08:00.605Z,17.83
2019-02-14T22:10:29.223Z,17.70
2019-02-14T22:12:57.766Z,18.30
2019-02-14T22:15:28.615Z,17.20
2019-02-14T22:17:57.354Z,17.67
2019-02-14T22:20:26.020Z,17.53
2019-02-14T22:22:54.737Z,17.90
2019-02-14T22:25:23.348Z,17.43
2019-02-14T22:27:52.070Z,16.87
2019-02-14T22:30:20.655Z,18.00
2019-02-14T22:32:49.300Z,17.23
2019-02-14T22:35:17.983Z,17.43
2019-02-14T22:37:46.786Z,18.47
2019-02-14T22:40:15.624Z,17.20
2019-02-14T22:42:47.627Z,17.33
2019-02-14T22:45:15.473Z,16.97
2019-02-14T22:47:47.041Z,18.17
2019-02-14T22:50:15.733Z,17.70
2019-02-14T22:52:44.379Z,18.50
2019-02-14T22:55:13.920Z,18.90
2019-02-14T22:57:42.530Z,19.20
2019-02-14T23:00:20.892Z,18.93
2019-02-14T23:02:49.647Z,18.00
2019-02-14T23:05:18.363Z,17.70
2019-02-14T23:07:46.956Z,16.93
2019-02-14T23:10:17.701Z,18.30
2019-02-14T23:12:55.158Z,17.87
2019-02-14T23:15:16.651Z,19.53
2019-02-14T23:17:45.223Z,18.53
2019-02-14T23:20:13.784Z,19.27
2019-02-14T23:22:42.361Z,20.37
2019-02-14T23:25:11.040Z,19.87
2019-02-14T23:27:39.618Z,20.33
2019-02-14T23:30:11.267Z,20.23
2019-02-14T23:32:39.966Z,19.63
2019-02-14T23:35:08.667Z,21.20
2019-02-14T23:37:37.407Z,19.97
2019-02-14T23:40:07.126Z,20.17
2019-02-14T23:42:35.631Z,20.47
2019-02-14T23:45:05.799Z,19.70
2019-02-14T23:47:34.422Z,19.20
2019-02-14T23:50:03.611Z,19.90
2019-02-14T23:52:32.230Z,19.03
2019-02-14T23:55:00.864Z,18.67
2019-02-14T23:57:29.520Z,19.03
2019-02-14T23:59:58.104Z,17.97
